createdAt,value
2022-12-08T00:00:08.897Z,74.83
2022-12-08T00:02:47.570Z,74.54
2022-12-08T00:05:37.860Z,74.38
2022-12-08T00:08:28.855Z,74.60
2022-12-08T00:11:01.467Z,74.96
2022-12-08T00:13:34.017Z,74.48
2022-12-08T00:16:08.338Z,74.46
2022-12-08T00:18:41.684Z,74.52
2022-12-08T00:21:14.298Z,74.84
2022-12-08T00:23:47.760Z,75.03
2022-12-08T00:26:20.401Z,74.78
2022-12-08T00:28:53.050Z,74.58
2022-12-08T00:31:27.072Z,74.94
2022-12-08T00:34:00.078Z,74.72
2022-12-08T00:36:33.165Z,74.75
2022-12-08T00:39:05.748Z,74.76
2022-12-08T00:41:55.676Z,74.50
2022-12-08T00:44:28.297Z,74.69
2022-12-08T00:47:02.584Z,74.46
2022-12-08T00:49:35.241Z,74.70
2022-12-08T00:52:07.903Z,74.40
2022-12-08T00:54:40.556Z,74.70
2022-12-08T00:57:13.245Z,74.50
2022-12-08T00:59:46.043Z,74.30
2022-12-08T01:02:20.102Z,74.76
2022-12-08T01:04:52.818Z,74.59
2022-12-08T01:07:25.361Z,74.33
2022-12-08T01:09:59.308Z,74.60
2022-12-08T01:12:31.993Z,74.32
2022-12-08T01:15:05.192Z,74.39
2022-12-08T01:17:39.193Z,74.57
2022-12-08T01:20:12.281Z,74.58
2022-12-08T01:22:45.047Z,74.44
2022-12-08T01:25:17.704Z,74.63
2022-12-08T01:27:50.392Z,74.70
2022-12-08T01:30:23.131Z,74.29
2022-12-08T01:32:59.052Z,73.85
2022-12-08T01:35:31.765Z,74.20
2022-12-08T01:38:04.456Z,73.93
2022-12-08T01:40:37.249Z,74.01
2022-12-08T01:43:11.440Z,74.19
2022-12-08T01:45:44.340Z,73.90
2022-12-08T01:48:20.185Z,74.02
2022-12-08T01:50:52.986Z,74.22
2022-12-08T01:53:27.970Z,74.07
2022-12-08T01:56:04.065Z,74.32
2022-12-08T01:58:41.173Z,74.02
2022-12-08T02:01:13.917Z,74.20
2022-12-08T02:03:49.281Z,73.93
2022-12-08T02:06:22.177Z,74.22
2022-12-08T02:08:55.954Z,74.24
2022-12-08T02:11:29.211Z,74.09
2022-12-08T02:14:04.424Z,74.12
2022-12-08T02:16:43.724Z,74.12
2022-12-08T02:19:33.799Z,74.21
2022-12-08T02:22:13.204Z,73.72
2022-12-08T02:24:48.367Z,74.23
2022-12-08T02:27:30.058Z,74.60
2022-12-08T02:30:16.848Z,74.76
2022-12-08T02:33:08.263Z,74.82
2022-12-08T02:35:45.153Z,74.61
2022-12-08T02:38:23.968Z,74.73
2022-12-08T02:41:02.050Z,74.05
2022-12-08T02:43:39.513Z,74.17
2022-12-08T02:46:14.648Z,73.92
2022-12-08T02:48:47.830Z,74.20
2022-12-08T02:51:22.158Z,74.02
2022-12-08T02:53:55.314Z,74.08
2022-12-08T02:56:38.566Z,73.80
2022-12-08T02:59:26.035Z,73.65
2022-12-08T03:02:11.153Z,73.73
2022-12-08T03:04:47.535Z,74.25
2022-12-08T03:07:24.797Z,73.89
2022-12-08T03:10:00.945Z,74.30
2022-12-08T03:12:36.753Z,73.71
2022-12-08T03:15:11.609Z,74.15
2022-12-08T03:17:45.534Z,74.18
2022-12-08T03:20:21.217Z,74.08
2022-12-08T03:22:57.485Z,73.65
2022-12-08T03:25:32.816Z,73.96
2022-12-08T03:28:06.156Z,73.74
2022-12-08T03:30:42.031Z,73.48
2022-12-08T03:33:16.906Z,73.49
2022-12-08T03:35:50.070Z,73.65
2022-12-08T03:38:37.915Z,73.60
2022-12-08T03:41:19.790Z,73.78
2022-12-08T03:43:53.463Z,73.75
2022-12-08T03:48:58.816Z,73.91
2022-12-08T03:51:32.168Z,73.37
2022-12-08T03:54:06.185Z,73.50
2022-12-08T03:56:39.822Z,74.27
2022-12-08T03:59:12.449Z,74.27
2022-12-08T04:01:45.166Z,74.29
2022-12-08T04:04:17.985Z,74.17
2022-12-08T04:06:50.653Z,74.23
2022-12-08T04:09:24.791Z,74.29
2022-12-08T04:11:57.486Z,74.02
2022-12-08T04:14:30.145Z,74.13
2022-12-08T04:17:02.726Z,73.97
2022-12-08T04:19:35.715Z,73.86
2022-12-08T04:22:08.495Z,73.99
2022-12-08T04:24:42.491Z,74.41
2022-12-08T04:27:15.394Z,74.27
2022-12-08T04:29:48.332Z,74.31
2022-12-08T04:32:21.119Z,74.30
2022-12-08T04:34:53.928Z,74.26
2022-12-08T04:37:26.569Z,74.33
2022-12-08T04:40:00.872Z,74.19
2022-12-08T04:42:33.717Z,73.97
2022-12-08T04:45:07.022Z,74.17
2022-12-08T04:47:40.224Z,73.84
2022-12-08T04:50:13.281Z,73.71
2022-12-08T04:52:46.176Z,74.15
2022-12-08T04:55:20.271Z,73.98
2022-12-08T04:57:53.270Z,73.61
2022-12-08T05:00:26.019Z,73.68
2022-12-08T05:02:58.772Z,73.38
2022-12-08T05:05:31.578Z,73.69
2022-12-08T05:08:04.506Z,73.86
2022-12-08T05:10:38.859Z,74.00
2022-12-08T05:13:11.656Z,74.10
2022-12-08T05:15:44.357Z,73.84
2022-12-08T05:18:17.023Z,73.61
2022-12-08T05:20:49.781Z,73.62
2022-12-08T05:23:22.552Z,73.65
2022-12-08T05:25:56.605Z,73.97
2022-12-08T05:28:41.246Z,74.03
2022-12-08T05:31:15.235Z,74.06
2022-12-08T05:33:48.170Z,73.55
2022-12-08T05:36:21.187Z,73.72
2022-12-08T05:38:53.939Z,73.89
2022-12-08T05:41:28.114Z,73.76
2022-12-08T05:44:00.818Z,73.70
2022-12-08T05:46:33.926Z,74.00
2022-12-08T05:49:08.252Z,73.82
2022-12-08T05:51:41.163Z,73.82
2022-12-08T05:54:14.202Z,73.71
2022-12-08T05:56:48.238Z,73.34
2022-12-08T05:59:20.887Z,73.75
2022-12-08T06:01:53.716Z,73.46
2022-12-08T06:04:26.453Z,73.60
2022-12-08T06:06:59.131Z,73.88
2022-12-08T06:09:31.851Z,74.16
2022-12-08T06:12:06.208Z,73.86
2022-12-08T06:14:39.395Z,73.46
2022-12-08T06:17:12.159Z,73.78
2022-12-08T06:19:45.017Z,73.66
2022-12-08T06:22:17.701Z,73.75
2022-12-08T06:24:50.394Z,73.58
2022-12-08T06:27:24.864Z,73.35
2022-12-08T06:29:57.635Z,73.61
2022-12-08T06:32:30.352Z,73.57
2022-12-08T06:35:03.333Z,73.82
2022-12-08T06:37:36.118Z,73.66
2022-12-08T06:40:09.602Z,73.29
2022-12-08T06:42:44.669Z,73.37
2022-12-08T06:45:18.485Z,73.42
2022-12-08T06:47:51.198Z,73.67
2022-12-08T06:50:23.916Z,73.50
2022-12-08T06:53:04.884Z,73.61
2022-12-08T06:58:32.572Z,74.19
2022-12-08T07:01:06.433Z,73.88
2022-12-08T07:03:39.384Z,73.88
2022-12-08T07:06:15.385Z,73.97
2022-12-08T07:08:47.944Z,73.65
2022-12-08T07:11:22.434Z,73.86
2022-12-08T07:13:57.759Z,73.94
2022-12-08T07:16:30.450Z,73.81
2022-12-08T07:19:03.071Z,73.59
2022-12-08T07:21:35.730Z,74.33
2022-12-08T07:24:08.719Z,74.44
2022-12-08T07:26:41.633Z,74.34
2022-12-08T07:29:15.597Z,74.30
2022-12-08T07:31:48.922Z,74.04
2022-12-08T07:34:21.953Z,74.02
2022-12-08T07:36:55.165Z,74.44
2022-12-08T07:39:28.220Z,74.42
2022-12-08T07:42:01.287Z,74.25
2022-12-08T07:44:35.789Z,73.73
2022-12-08T07:47:08.612Z,73.91
2022-12-08T07:49:41.486Z,74.07
2022-12-08T07:52:14.373Z,74.29
2022-12-08T07:54:47.346Z,73.99
2022-12-08T07:57:20.150Z,74.00
2022-12-08T07:59:54.303Z,74.12
2022-12-08T08:02:27.270Z,74.09
2022-12-08T08:05:00.250Z,73.96
2022-12-08T08:07:33.066Z,73.85
2022-12-08T08:10:06.868Z,73.81
2022-12-08T08:12:39.724Z,74.12
2022-12-08T08:15:13.819Z,73.81
2022-12-08T08:17:50.390Z,73.88
2022-12-08T08:20:25.548Z,73.88
2022-12-08T08:22:58.218Z,73.76
2022-12-08T08:25:30.784Z,74.00
2022-12-08T08:28:04.295Z,74.05
2022-12-08T08:30:40.056Z,73.85
2022-12-08T08:33:12.794Z,74.00
2022-12-08T08:35:45.399Z,73.93
2022-12-08T08:38:18.113Z,73.72
2022-12-08T08:40:51.016Z,73.96
2022-12-08T08:43:37.753Z,74.08
2022-12-08T08:46:12.321Z,74.26
2022-12-08T08:48:45.801Z,74.20
2022-12-08T08:51:20.051Z,74.26
2022-12-08T08:53:52.790Z,74.16
2022-12-08T08:56:25.507Z,74.55
2022-12-08T08:58:58.175Z,74.02
2022-12-08T09:01:32.356Z,74.22
2022-12-08T09:04:06.067Z,73.91
2022-12-08T09:06:40.371Z,74.19
2022-12-08T09:09:13.416Z,74.03
2022-12-08T09:11:46.120Z,74.04
2022-12-08T09:14:18.729Z,74.66
2022-12-08T09:16:55.787Z,74.91
2022-12-08T09:19:29.345Z,74.45
2022-12-08T09:22:01.922Z,74.29
2022-12-08T09:24:34.464Z,74.21
2022-12-08T09:27:08.721Z,74.59
2022-12-08T09:29:41.293Z,74.52
2022-12-08T09:32:15.269Z,74.72
2022-12-08T09:34:52.280Z,74.72
2022-12-08T09:37:26.794Z,74.80
2022-12-08T09:39:59.922Z,74.80
2022-12-08T09:42:37.343Z,74.66
2022-12-08T09:45:11.544Z,74.75
2022-12-08T09:47:48.939Z,75.16
2022-12-08T09:50:30.236Z,74.71
2022-12-08T09:53:06.339Z,74.48
2022-12-08T09:55:42.088Z,74.90
2022-12-08T09:58:22.136Z,74.04
2022-12-08T10:00:54.824Z,74.44
2022-12-08T10:03:34.760Z,74.29
2022-12-08T10:06:13.358Z,74.09
2022-12-08T10:08:52.788Z,74.44
2022-12-08T10:11:28.900Z,74.61
2022-12-08T10:14:12.110Z,74.42
2022-12-08T10:16:48.678Z,74.82
2022-12-08T10:19:32.260Z,74.57
2022-12-08T10:22:07.218Z,74.93
2022-12-08T10:24:42.249Z,74.76
2022-12-08T10:27:14.923Z,74.71
2022-12-08T10:29:49.317Z,74.96
2022-12-08T10:32:23.031Z,74.94
2022-12-08T10:35:08.213Z,74.32
2022-12-08T10:37:41.450Z,74.66
2022-12-08T10:40:15.184Z,74.81
2022-12-08T10:42:49.847Z,74.79
2022-12-08T10:45:26.942Z,74.72
2022-12-08T10:48:02.011Z,74.77
2022-12-08T10:50:37.805Z,74.78
2022-12-08T10:53:14.636Z,75.01
2022-12-08T10:55:48.090Z,74.88
2022-12-08T10:58:31.240Z,74.79
2022-12-08T11:01:06.280Z,74.48
2022-12-08T11:03:44.739Z,74.92
2022-12-08T11:06:20.984Z,74.43
2022-12-08T11:08:55.101Z,74.54
2022-12-08T11:11:38.577Z,73.96
2022-12-08T11:14:16.027Z,74.09
2022-12-08T11:16:49.456Z,74.43
2022-12-08T11:19:26.890Z,74.03
2022-12-08T11:22:00.839Z,74.25
2022-12-08T11:24:37.664Z,73.80
2022-12-08T11:27:10.676Z,73.68
2022-12-08T11:29:43.446Z,74.12
2022-12-08T11:32:16.122Z,74.07
2022-12-08T11:34:50.861Z,74.37
2022-12-08T11:37:32.821Z,74.13
2022-12-08T11:40:09.486Z,74.04
2022-12-08T11:42:46.626Z,74.09
2022-12-08T11:45:23.216Z,73.92
2022-12-08T11:48:04.588Z,74.14
2022-12-08T11:50:42.775Z,74.27
2022-12-08T11:53:20.277Z,74.19
2022-12-08T11:55:56.262Z,74.15
2022-12-08T11:58:33.047Z,73.90
2022-12-08T12:01:06.931Z,73.90
2022-12-08T12:03:41.157Z,73.55
2022-12-08T12:06:46.492Z,73.66
2022-12-08T12:09:18.800Z,74.19
2022-12-08T12:12:15.961Z,73.70
2022-12-08T12:15:09.721Z,73.68
2022-12-08T12:17:52.266Z,73.54
2022-12-08T12:20:26.822Z,73.73
2022-12-08T12:23:04.914Z,73.79
2022-12-08T12:25:39.277Z,73.61
2022-12-08T12:28:13.817Z,73.76
2022-12-08T12:30:55.468Z,74.10
2022-12-08T12:33:28.667Z,73.92
2022-12-08T12:36:04.725Z,73.75
2022-12-08T12:38:56.546Z,73.93
2022-12-08T12:41:33.232Z,73.42
2022-12-08T12:44:39.837Z,73.87
2022-12-08T12:47:41.623Z,73.29
2022-12-08T12:50:16.542Z,73.60
2022-12-08T12:52:49.566Z,73.63
2022-12-08T12:55:42.924Z,73.88
2022-12-08T12:58:50.850Z,73.72
2022-12-08T13:01:50.546Z,73.73
2022-12-08T13:04:30.677Z,73.66
2022-12-08T13:07:05.880Z,73.55
2022-12-08T13:09:41.648Z,73.77
2022-12-08T13:12:24.035Z,73.44
2022-12-08T13:15:00.811Z,73.58
2022-12-08T13:17:35.004Z,73.74
2022-12-08T13:20:17.975Z,73.59
2022-12-08T13:23:01.910Z,73.69
2022-12-08T13:25:48.266Z,73.51
2022-12-08T13:28:23.237Z,73.86
2022-12-08T13:30:56.785Z,74.12
2022-12-08T13:33:31.377Z,73.58
2022-12-08T13:36:12.905Z,73.76
2022-12-08T13:38:48.325Z,73.59
2022-12-08T13:41:23.264Z,73.65
2022-12-08T13:47:31.742Z,73.78
2022-12-08T13:51:10.472Z,73.59
2022-12-08T13:58:36.615Z,73.74
2022-12-08T14:01:11.796Z,73.59
2022-12-08T14:04:12.845Z,74.04
2022-12-08T14:06:44.452Z,73.90
2022-12-08T14:09:19.601Z,74.00
2022-12-08T14:11:58.427Z,73.91
2022-12-08T14:17:28.644Z,74.04
2022-12-08T14:20:02.583Z,73.88
2022-12-08T14:22:36.676Z,73.51
2022-12-08T14:25:14.589Z,73.70
2022-12-08T14:27:49.238Z,73.68
2022-12-08T14:30:23.091Z,73.95
2022-12-08T14:32:57.257Z,73.84
2022-12-08T14:35:34.055Z,74.08
2022-12-08T14:38:10.806Z,73.89
2022-12-08T14:40:44.850Z,73.79
2022-12-08T14:43:21.840Z,73.71
2022-12-08T14:45:57.030Z,74.01
2022-12-08T14:48:42.241Z,73.81
2022-12-08T14:51:17.262Z,74.52
2022-12-08T14:53:54.290Z,73.71
2022-12-08T14:56:28.821Z,74.18
2022-12-08T14:59:08.032Z,74.53
2022-12-08T15:01:40.917Z,74.10
2022-12-08T15:04:17.618Z,73.97
2022-12-08T15:06:53.563Z,74.15
2022-12-08T15:09:31.480Z,74.11
2022-12-08T15:12:06.066Z,73.94
2022-12-08T15:14:42.971Z,73.65
2022-12-08T15:17:29.743Z,73.22
2022-12-08T15:20:05.399Z,73.02
2022-12-08T15:22:41.288Z,73.44
2022-12-08T15:25:14.885Z,74.06
2022-12-08T15:27:50.772Z,74.15
2022-12-08T15:30:26.985Z,74.26
2022-12-08T15:32:59.756Z,74.41
2022-12-08T15:35:37.355Z,74.25
2022-12-08T15:38:19.089Z,74.29
2022-12-08T15:40:52.569Z,74.11
2022-12-08T15:43:28.210Z,74.50
2022-12-08T15:46:03.077Z,74.25
2022-12-08T15:48:38.740Z,74.47
2022-12-08T15:51:13.561Z,74.12
2022-12-08T15:53:46.563Z,74.57
2022-12-08T15:56:27.428Z,74.34
2022-12-08T15:59:03.533Z,74.28
2022-12-08T16:01:37.905Z,74.18
2022-12-08T16:05:17.839Z,74.23
2022-12-08T16:07:22.137Z,73.90
2022-12-08T16:09:55.593Z,74.12
2022-12-08T16:13:48.330Z,74.20
2022-12-08T16:15:53.514Z,73.92
2022-12-08T16:18:35.537Z,73.78
2022-12-08T16:21:26.813Z,74.06
2022-12-08T16:24:07.497Z,73.95
2022-12-08T16:27:51.212Z,73.77
2022-12-08T16:29:34.804Z,73.76
2022-12-08T16:32:07.544Z,73.99
2022-12-08T16:34:42.104Z,73.92
2022-12-08T16:37:16.404Z,73.72
2022-12-08T16:39:52.820Z,73.74
2022-12-08T16:42:40.494Z,73.72
2022-12-08T16:45:15.909Z,74.21
2022-12-08T16:47:49.797Z,74.00
2022-12-08T16:50:26.171Z,74.21
2022-12-08T16:53:00.000Z,74.38
2022-12-08T16:55:33.670Z,74.17
2022-12-08T16:58:07.041Z,74.40
2022-12-08T17:00:40.149Z,74.05
2022-12-08T17:03:14.790Z,74.06
2022-12-08T17:05:49.097Z,74.10
2022-12-08T17:08:22.003Z,73.98
2022-12-08T17:11:07.351Z,74.03
2022-12-08T17:13:41.432Z,73.85
2022-12-08T17:16:19.255Z,74.06
2022-12-08T17:18:56.213Z,73.87
2022-12-08T17:21:30.439Z,73.90
2022-12-08T17:24:03.204Z,73.71
2022-12-08T17:26:36.052Z,74.14
2022-12-08T17:29:08.817Z,73.74
2022-12-08T17:31:41.503Z,73.90
2022-12-08T17:34:14.049Z,74.07
2022-12-08T17:36:48.175Z,73.79
2022-12-08T17:39:22.135Z,74.34
2022-12-08T17:41:57.841Z,74.34
2022-12-08T17:44:31.145Z,74.36
2022-12-08T17:47:05.045Z,74.10
2022-12-08T17:49:37.915Z,74.16
2022-12-08T17:52:12.519Z,73.68
2022-12-08T17:54:45.635Z,73.80
2022-12-08T17:57:20.564Z,73.76
2022-12-08T17:59:56.442Z,73.89
2022-12-08T18:02:31.056Z,74.11
2022-12-08T18:05:03.927Z,74.33
2022-12-08T18:07:38.349Z,74.08
2022-12-08T18:10:11.328Z,74.10
2022-12-08T18:12:43.963Z,74.14
2022-12-08T18:15:20.515Z,74.17
2022-12-08T18:17:53.391Z,74.05
2022-12-08T18:20:26.774Z,74.28
2022-12-08T18:23:01.031Z,74.63
2022-12-08T18:25:36.573Z,74.37
2022-12-08T18:28:10.087Z,74.04
2022-12-08T18:30:43.050Z,74.34
2022-12-08T18:33:15.953Z,74.74
2022-12-08T18:35:48.718Z,74.39
2022-12-08T18:38:22.808Z,74.25
2022-12-08T18:40:55.446Z,73.96
2022-12-08T18:43:28.264Z,74.35
2022-12-08T18:46:04.024Z,74.68
2022-12-08T18:48:37.250Z,74.30
2022-12-08T18:51:10.291Z,74.40
2022-12-08T18:53:47.758Z,74.70
2022-12-08T18:56:24.854Z,74.58
2022-12-08T18:59:03.181Z,74.21
2022-12-08T19:01:38.946Z,74.27
2022-12-08T19:04:27.956Z,74.52
2022-12-08T19:07:01.379Z,74.31
2022-12-08T19:09:35.607Z,74.88
2022-12-08T19:12:13.044Z,74.13
2022-12-08T19:14:46.280Z,74.35
2022-12-08T19:17:19.360Z,74.55
2022-12-08T19:19:52.482Z,74.56
2022-12-08T19:22:27.873Z,74.30
2022-12-08T19:25:02.169Z,74.38
2022-12-08T19:27:35.264Z,74.20
2022-12-08T19:30:11.475Z,74.52
2022-12-08T19:32:45.671Z,74.21
2022-12-08T19:35:18.926Z,74.42
2022-12-08T19:37:51.748Z,74.54
2022-12-08T19:40:43.435Z,74.40
2022-12-08T19:43:46.540Z,74.62
2022-12-08T19:46:19.808Z,74.91
2022-12-08T19:48:55.670Z,74.43
2022-12-08T19:51:28.615Z,74.62
2022-12-08T19:54:04.632Z,74.72
2022-12-08T19:56:39.143Z,74.63
2022-12-08T19:59:19.956Z,74.59
2022-12-08T20:01:53.341Z,74.45
2022-12-08T20:04:27.586Z,74.59
2022-12-08T20:07:01.626Z,74.40
2022-12-08T20:09:42.809Z,74.30
2022-12-08T20:12:19.786Z,74.30
2022-12-08T20:14:54.135Z,74.47
2022-12-08T20:17:28.236Z,74.61
2022-12-08T20:20:07.832Z,74.61
2022-12-08T20:22:46.380Z,74.64
2022-12-08T20:25:20.680Z,74.53
2022-12-08T20:27:57.725Z,74.52
2022-12-08T20:30:30.843Z,74.61
2022-12-08T20:33:06.398Z,74.90
2022-12-08T20:35:41.964Z,74.54
2022-12-08T20:38:16.356Z,74.58
2022-12-08T20:40:52.875Z,74.83
2022-12-08T20:43:27.459Z,74.75
2022-12-08T20:46:06.324Z,74.54
2022-12-08T20:48:44.300Z,74.92
2022-12-08T20:51:20.904Z,74.85
2022-12-08T20:53:54.988Z,74.58
2022-12-08T20:56:40.979Z,74.75
2022-12-08T20:59:18.442Z,74.79
2022-12-08T21:01:53.052Z,74.90
2022-12-08T21:04:26.405Z,74.82
2022-12-08T21:07:00.694Z,74.98
2022-12-08T21:09:34.018Z,74.69
2022-12-08T21:12:07.634Z,74.80
2022-12-08T21:14:42.972Z,74.53
2022-12-08T21:17:16.457Z,74.40
2022-12-08T21:19:50.763Z,74.62
2022-12-08T21:22:23.887Z,74.67
2022-12-08T21:24:57.864Z,74.37
2022-12-08T21:27:32.596Z,74.55
2022-12-08T21:30:08.523Z,74.40
2022-12-08T21:32:41.717Z,74.45
2022-12-08T21:35:14.584Z,74.11
2022-12-08T21:37:47.479Z,73.93
2022-12-08T21:40:20.493Z,73.75
2022-12-08T21:42:53.372Z,74.16
2022-12-08T21:45:27.374Z,74.13
2022-12-08T21:48:02.252Z,74.26
2022-12-08T21:50:38.672Z,74.21
2022-12-08T21:53:12.512Z,74.19
2022-12-08T21:55:45.413Z,73.78
2022-12-08T21:58:18.228Z,73.94
2022-12-08T22:00:52.593Z,73.93
2022-12-08T22:03:26.775Z,74.00
2022-12-08T22:06:04.187Z,74.06
2022-12-08T22:08:37.040Z,73.96
2022-12-08T22:11:11.383Z,74.07
2022-12-08T22:13:44.126Z,74.02
2022-12-08T22:16:18.310Z,73.90
2022-12-08T22:18:51.298Z,73.97
2022-12-08T22:21:24.183Z,74.28
2022-12-08T22:23:57.241Z,74.00
2022-12-08T22:26:29.834Z,73.65
2022-12-08T22:29:02.914Z,73.67
2022-12-08T22:31:37.290Z,73.57
2022-12-08T22:34:10.347Z,73.94
2022-12-08T22:36:44.473Z,74.13
2022-12-08T22:39:17.294Z,73.70
2022-12-08T22:41:50.049Z,73.84
2022-12-08T22:44:22.985Z,73.64
2022-12-08T22:46:57.665Z,73.86
2022-12-08T22:49:30.291Z,73.58
2022-12-08T22:52:03.131Z,73.81
2022-12-08T22:54:35.933Z,73.96
2022-12-08T22:57:08.706Z,73.71
2022-12-08T22:59:41.427Z,73.94
2022-12-08T23:02:15.600Z,73.84
2022-12-08T23:04:48.741Z,73.94
2022-12-08T23:07:21.553Z,73.66
2022-12-08T23:09:54.182Z,73.43
2022-12-08T23:12:26.994Z,73.48
2022-12-08T23:15:00.105Z,73.36
2022-12-08T23:17:34.799Z,73.77
2022-12-08T23:20:08.720Z,73.54
2022-12-08T23:22:42.096Z,73.44
2022-12-08T23:25:14.920Z,73.82
2022-12-08T23:27:48.086Z,73.44
2022-12-08T23:30:21.031Z,73.42
2022-12-08T23:32:57.339Z,73.38
2022-12-08T23:35:30.334Z,73.10
2022-12-08T23:38:03.081Z,73.47
2022-12-08T23:40:35.844Z,73.21
2022-12-08T23:43:08.978Z,73.25
2022-12-08T23:45:41.844Z,73.28
2022-12-08T23:48:15.923Z,73.63
2022-12-08T23:50:49.004Z,73.50
2022-12-08T23:53:22.055Z,73.55
2022-12-08T23:55:59.234Z,73.70
2022-12-08T23:58:32.898Z,73.63
